Etusivu
METAR-TAF:

METAR-TAF

Lentoasemat :

Mackinac Island Airport

Mackinac Island, Michigan, Yhdysvallat

Leveyspiiri: 45-51-54N, Pituuspiiri: 084-38-14W, korkeus merenpinnasta: 226 m

Tämänhetkinen sää

Tämä raportti tehtiin 27 minuuttia sitten, kello 14.55 UTC
Tuuli 16 kn idästä/kaakosta puuskistuen 32 kn:hen
Lämpötila -2°C
Kosteus 100%
Ilmanpaine 1008 hPa
Näkyvyys: 0.8 km
Pilvistä 600 ft:n korkeudessa
lumisadetta

METAR: KMCD 181455Z AUTO 11016G32KT 1/2SM SN OVC006 M02/M02 A2978 RMK AO2 T10241024

Aika: 10:22 (15:22 UTC)


TAF: puuttuu

Säähavainnot ja -ennusteet yli 4000 lentoasemalta (METAR- ja TAF-raportit).

Käytössä olevat sääasemat on merkitty karttaan keltaisilla ja punaisilla pisteillä.

Aseta hiiri pisteen päälle nähdäksesi sääaseman nimen.

Klikkaa sitten nähdäksesi säähavainnot ja -ennusteet.

Kartan vaihtaminen: klikkaa mustalla rastilla varustettuja vihreitä pisteitä, niin voit zoomata sisään; viivalla varustettua vihreää pistettä, niin voit zoomata ulos tai vihreitä nuolia, niin pääset viereisille kartoille.


METAR-TAF: